createdAt,value
2023-01-17T00:00:09.819Z,97961.22
2023-01-17T00:02:39.786Z,97957.75
2023-01-17T00:05:25.604Z,97961.59
2023-01-17T00:08:08.970Z,97965.31
2023-01-17T00:10:44.054Z,97972.84
2023-01-17T00:13:16.776Z,97974.09
2023-01-17T00:15:46.578Z,97980.16
2023-01-17T00:18:17.206Z,97987.78
2023-01-17T00:21:05.015Z,97989.69
2023-01-17T00:23:56.735Z,97981.97
2023-01-17T00:26:26.728Z,97988.91
2023-01-17T00:28:53.733Z,97985.78
2023-01-17T00:31:20.828Z,97996.53
2023-01-17T00:33:47.777Z,97996.03
2023-01-17T00:36:17.346Z,98001.16
2023-01-17T00:38:44.289Z,98002.97
2023-01-17T00:41:12.530Z,97992.91
2023-01-17T00:43:54.998Z,97996.72
2023-01-17T00:46:37.592Z,98008.88
2023-01-17T00:49:20.927Z,98010.88
2023-01-17T00:52:05.719Z,98015.81
2023-01-17T00:54:47.886Z,98035.00
2023-01-17T00:57:30.278Z,98034.88
2023-01-17T01:00:12.545Z,98045.47
2023-01-17T01:02:55.331Z,98050.84
2023-01-17T01:05:38.329Z,98061.59
2023-01-17T01:08:35.024Z,98057.06
2023-01-17T01:11:21.659Z,98062.34
2023-01-17T01:14:03.751Z,98066.59
2023-01-17T01:16:45.991Z,98075.78
2023-01-17T01:19:28.579Z,98068.75
2023-01-17T01:22:10.761Z,98086.56
2023-01-17T01:24:55.556Z,98085.19
2023-01-17T01:27:37.931Z,98094.56
2023-01-17T01:30:21.333Z,98095.34
2023-01-17T01:33:03.480Z,98093.16
2023-01-17T01:35:33.250Z,98099.94
2023-01-17T01:38:05.095Z,98101.16
2023-01-17T01:40:37.456Z,98109.22
2023-01-17T01:43:08.678Z,98110.00
2023-01-17T01:45:38.857Z,98120.75
2023-01-17T01:48:22.204Z,98122.13
2023-01-17T01:50:53.610Z,98134.25
2023-01-17T01:53:24.712Z,98137.41
2023-01-17T01:55:58.435Z,98146.47
2023-01-17T01:58:34.779Z,98141.91
2023-01-17T02:01:04.816Z,98149.88
2023-01-17T02:03:36.463Z,98153.91
2023-01-17T02:06:17.781Z,98156.81
2023-01-17T02:08:48.019Z,98165.00
2023-01-17T02:11:22.785Z,98176.84
2023-01-17T02:13:52.676Z,98194.59
2023-01-17T02:16:35.575Z,98204.03
2023-01-17T02:19:31.027Z,98218.56
2023-01-17T02:22:19.386Z,98223.47
2023-01-17T02:25:17.694Z,98226.41
2023-01-17T02:28:09.556Z,98246.88
2023-01-17T02:30:44.499Z,98247.88
2023-01-17T02:33:25.840Z,98258.03
2023-01-17T02:36:07.237Z,98260.38
2023-01-17T02:38:46.330Z,98265.75
2023-01-17T02:41:21.241Z,98268.28
2023-01-17T02:43:53.495Z,98268.84
2023-01-17T02:46:25.975Z,98269.84
2023-01-17T02:48:57.816Z,98268.03
2023-01-17T02:51:41.315Z,98270.41
2023-01-17T02:54:30.210Z,98277.13
2023-01-17T02:57:13.737Z,98277.13
2023-01-17T02:59:52.439Z,98288.50
2023-01-17T03:02:30.930Z,98291.63
2023-01-17T03:05:07.133Z,98283.25
2023-01-17T03:07:38.061Z,98287.84
2023-01-17T03:10:11.262Z,98287.63
2023-01-17T03:12:42.732Z,98296.59
2023-01-17T03:15:13.929Z,98297.47
2023-01-17T03:17:52.375Z,98300.38
2023-01-17T03:20:23.910Z,98302.84
2023-01-17T03:22:53.719Z,98302.75
2023-01-17T03:25:23.732Z,98311.56
2023-01-17T03:27:53.756Z,98317.13
2023-01-17T03:30:23.741Z,98312.69
2023-01-17T03:32:56.169Z,98316.50
2023-01-17T03:35:25.957Z,98310.19
2023-01-17T03:37:55.694Z,98318.69
2023-01-17T03:40:25.756Z,98323.19
2023-01-17T03:42:55.723Z,98323.63
2023-01-17T03:45:25.429Z,98323.81
2023-01-17T03:47:58.007Z,98317.81
2023-01-17T03:50:27.990Z,98334.56
2023-01-17T03:52:57.892Z,98339.91
2023-01-17T03:55:27.726Z,98331.41
2023-01-17T03:57:57.422Z,98335.22
2023-01-17T04:00:27.436Z,98329.84
2023-01-17T04:02:59.976Z,98333.78
2023-01-17T04:05:29.708Z,98348.44
2023-01-17T04:07:59.394Z,98350.47
2023-01-17T04:10:29.224Z,98339.38
2023-01-17T04:12:59.078Z,98336.94
2023-01-17T04:15:28.953Z,98349.22
2023-01-17T04:18:01.649Z,98344.50
2023-01-17T04:20:35.121Z,98354.44
2023-01-17T04:23:05.292Z,98355.13
2023-01-17T04:25:35.529Z,98360.50
2023-01-17T04:28:06.417Z,98358.00
2023-01-17T04:30:36.341Z,98357.03
2023-01-17T04:33:08.885Z,98352.97
2023-01-17T04:35:38.936Z,98362.47
2023-01-17T04:38:08.596Z,98361.81
2023-01-17T04:40:38.365Z,98370.03
2023-01-17T04:43:09.349Z,98379.47
2023-01-17T04:45:39.292Z,98371.22
2023-01-17T04:48:13.061Z,98368.09
2023-01-17T04:50:43.072Z,98381.19
2023-01-17T04:53:12.760Z,98384.63
2023-01-17T04:55:42.584Z,98384.97
2023-01-17T04:58:15.225Z,98383.38
2023-01-17T05:00:44.904Z,98378.81
2023-01-17T05:03:17.257Z,98381.69
2023-01-17T05:05:47.458Z,98387.50
2023-01-17T05:08:17.697Z,98383.94
2023-01-17T05:10:49.304Z,98395.28
2023-01-17T05:13:19.186Z,98395.28
2023-01-17T05:15:49.798Z,98402.22
2023-01-17T05:18:22.236Z,98392.94
2023-01-17T05:20:51.944Z,98402.22
2023-01-17T05:23:21.889Z,98399.53
2023-01-17T05:25:52.089Z,98407.94
2023-01-17T05:28:21.851Z,98412.06
2023-01-17T05:30:51.731Z,98413.47
2023-01-17T05:33:25.254Z,98410.22
2023-01-17T05:35:55.046Z,98408.63
2023-01-17T05:38:32.775Z,98421.59
2023-01-17T05:41:02.934Z,98423.16
2023-01-17T05:43:32.717Z,98427.66
2023-01-17T05:46:02.514Z,98420.09
2023-01-17T05:48:34.995Z,98422.00
2023-01-17T05:51:04.897Z,98417.41
2023-01-17T05:53:34.570Z,98419.78
2023-01-17T05:56:05.483Z,98421.22
2023-01-17T05:58:35.174Z,98428.78
2023-01-17T06:01:05.037Z,98432.31
2023-01-17T06:03:37.812Z,98434.22
2023-01-17T06:06:07.827Z,98443.72
2023-01-17T06:08:37.600Z,98441.31
2023-01-17T06:11:07.909Z,98444.16
2023-01-17T06:13:37.623Z,98453.66
2023-01-17T06:16:08.769Z,98452.88
2023-01-17T06:18:42.515Z,98452.88
2023-01-17T06:21:12.287Z,98453.03
2023-01-17T06:23:42.044Z,98464.22
2023-01-17T06:26:15.155Z,98455.72
2023-01-17T06:28:47.236Z,98451.66
2023-01-17T06:31:18.397Z,98455.28
2023-01-17T06:33:50.821Z,98453.22
2023-01-17T06:36:20.586Z,98457.94
2023-01-17T06:38:53.241Z,98457.94
2023-01-17T06:41:23.389Z,98453.22
2023-01-17T06:43:55.581Z,98455.44
2023-01-17T06:46:26.011Z,98455.16
2023-01-17T06:49:00.820Z,98461.63
2023-01-17T06:51:30.735Z,98470.31
2023-01-17T06:54:00.730Z,98472.38
2023-01-17T06:56:36.066Z,98472.81
2023-01-17T06:59:06.214Z,98484.66
2023-01-17T07:01:36.162Z,98487.34
2023-01-17T07:04:09.925Z,98496.00
2023-01-17T07:06:39.984Z,98500.28
2023-01-17T07:09:09.709Z,98493.31
2023-01-17T07:11:39.504Z,98490.97
2023-01-17T07:14:14.000Z,98497.13
2023-01-17T07:16:46.135Z,98505.16
2023-01-17T07:19:19.704Z,98490.06
2023-01-17T07:21:49.461Z,98500.28
2023-01-17T07:24:19.180Z,98505.94
2023-01-17T07:26:51.450Z,98501.50
2023-01-17T07:29:21.757Z,98502.44
2023-01-17T07:31:52.028Z,98499.41
2023-01-17T07:34:24.435Z,98494.38
2023-01-17T07:36:54.846Z,98491.53
2023-01-17T07:39:24.696Z,98486.97
2023-01-17T07:41:54.476Z,98493.00
2023-01-17T07:44:24.640Z,98489.84
2023-01-17T07:46:54.607Z,98498.84
2023-01-17T07:49:27.110Z,98501.19
2023-01-17T07:51:57.151Z,98504.34
2023-01-17T07:54:27.180Z,98500.56
2023-01-17T07:56:56.945Z,98507.34
2023-01-17T07:59:26.805Z,98509.25
2023-01-17T08:01:56.705Z,98514.44
2023-01-17T08:04:34.882Z,98504.16
2023-01-17T08:07:05.112Z,98501.66
2023-01-17T08:09:34.835Z,98504.00
2023-01-17T08:12:04.799Z,98501.16
2023-01-17T08:14:34.561Z,98496.69
2023-01-17T08:17:07.904Z,98502.50
2023-01-17T08:19:40.643Z,98505.19
2023-01-17T08:22:12.258Z,98503.78
2023-01-17T08:24:42.359Z,98506.31
2023-01-17T08:27:12.486Z,98509.66
2023-01-17T08:29:47.232Z,98509.66
2023-01-17T08:32:17.099Z,98515.78
2023-01-17T08:34:49.575Z,98524.28
2023-01-17T08:37:19.459Z,98522.41
2023-01-17T08:39:49.157Z,98527.44
2023-01-17T08:42:19.349Z,98529.16
2023-01-17T08:44:49.066Z,98525.38
2023-01-17T08:47:18.996Z,98533.41
2023-01-17T08:49:52.964Z,98516.69
2023-01-17T08:52:22.791Z,98512.88
2023-01-17T08:54:53.683Z,98511.94
2023-01-17T08:57:23.512Z,98523.78
2023-01-17T08:59:53.299Z,98530.72
2023-01-17T09:02:24.958Z,98527.41
2023-01-17T09:04:57.345Z,98528.81
2023-01-17T09:07:27.331Z,98530.38
2023-01-17T09:09:57.199Z,98529.72
2023-01-17T09:12:27.041Z,98529.72
2023-01-17T09:14:57.090Z,98527.03
2023-01-17T09:17:26.989Z,98543.47
2023-01-17T09:19:59.620Z,98539.34
2023-01-17T09:22:29.343Z,98538.88
2023-01-17T09:24:59.104Z,98547.38
2023-01-17T09:27:28.974Z,98538.72
2023-01-17T09:29:58.680Z,98545.66
2023-01-17T09:32:28.465Z,98546.09
2023-01-17T09:35:01.048Z,98534.25
2023-01-17T09:37:31.075Z,98542.44
2023-01-17T09:40:00.913Z,98532.97
2023-01-17T09:42:37.456Z,98532.78
2023-01-17T09:45:12.887Z,98538.16
2023-01-17T09:47:48.109Z,98530.22
2023-01-17T09:50:28.439Z,98541.56
2023-01-17T09:53:02.448Z,98543.41
2023-01-17T09:55:38.390Z,98551.44
2023-01-17T09:58:14.924Z,98548.13
2023-01-17T10:00:54.128Z,98548.13
2023-01-17T10:03:41.151Z,98545.63
2023-01-17T10:06:21.695Z,98555.59
2023-01-17T10:09:15.595Z,98557.22
2023-01-17T10:11:56.739Z,98553.84
2023-01-17T10:14:55.210Z,98558.31
2023-01-17T10:17:37.155Z,98561.47
2023-01-17T10:20:25.291Z,98558.31
2023-01-17T10:23:13.601Z,98558.00
2023-01-17T10:25:51.421Z,98566.66
2023-01-17T10:28:26.800Z,98561.06
2023-01-17T10:31:02.444Z,98568.03
2023-01-17T10:33:39.965Z,98570.25
2023-01-17T10:36:16.046Z,98554.41
2023-01-17T10:38:52.383Z,98551.38
2023-01-17T10:41:28.768Z,98555.94
2023-01-17T10:44:09.325Z,98553.38
2023-01-17T10:46:43.558Z,98558.88
2023-01-17T10:49:18.546Z,98557.44
2023-01-17T10:52:09.851Z,98555.88
2023-01-17T10:54:56.640Z,98551.72
2023-01-17T10:57:27.848Z,98548.53
2023-01-17T11:00:02.786Z,98543.81
2023-01-17T11:02:40.023Z,98546.97
2023-01-17T11:05:23.179Z,98546.03
2023-01-17T11:08:03.909Z,98541.78
2023-01-17T11:10:43.263Z,98542.09
2023-01-17T11:13:29.244Z,98544.47
2023-01-17T11:16:02.404Z,98545.38
2023-01-17T11:18:34.510Z,98538.56
2023-01-17T11:21:14.390Z,98539.69
2023-01-17T11:23:45.567Z,98530.66
2023-01-17T11:26:27.829Z,98539.94
2023-01-17T11:29:17.351Z,98537.41
2023-01-17T11:31:47.079Z,98534.28
2023-01-17T11:34:19.774Z,98523.34
2023-01-17T11:36:50.322Z,98521.22
2023-01-17T11:39:29.145Z,98518.41
2023-01-17T11:42:01.674Z,98520.44
2023-01-17T11:44:33.836Z,98515.72
2023-01-17T11:47:19.711Z,98524.25
2023-01-17T11:49:51.830Z,98525.16
2023-01-17T11:52:27.399Z,98515.19
2023-01-17T11:54:58.664Z,98521.81
2023-01-17T11:57:34.312Z,98513.75
2023-01-17T12:00:19.668Z,98505.34
2023-01-17T12:03:10.973Z,98517.34
2023-01-17T12:05:53.735Z,98515.56
2023-01-17T12:08:39.652Z,98515.69
2023-01-17T12:11:16.835Z,98503.47
2023-01-17T12:14:03.850Z,98507.72
2023-01-17T12:16:47.964Z,98516.28
2023-01-17T12:19:46.508Z,98511.34
2023-01-17T12:22:33.933Z,98503.06
2023-01-17T12:25:26.774Z,98505.06
2023-01-17T12:28:11.625Z,98493.19
2023-01-17T12:30:55.128Z,98491.09
2023-01-17T12:33:31.203Z,98491.66
2023-01-17T12:36:05.412Z,98488.19
2023-01-17T12:38:38.678Z,98494.34
2023-01-17T12:41:14.051Z,98488.28
2023-01-17T12:43:44.718Z,98481.56
2023-01-17T12:46:24.082Z,98484.72
2023-01-17T12:48:57.835Z,98485.94
2023-01-17T12:51:32.182Z,98480.66
2023-01-17T12:54:10.219Z,98493.91
2023-01-17T12:56:45.539Z,98482.81
2023-01-17T12:59:22.152Z,98493.78
2023-01-17T13:02:00.285Z,98481.03
2023-01-17T13:04:41.993Z,98489.44
2023-01-17T13:07:27.199Z,98497.94
2023-01-17T13:10:04.778Z,98489.44
2023-01-17T13:12:41.529Z,98493.47
2023-01-17T13:15:18.632Z,98491.78
2023-01-17T13:17:54.459Z,98495.03
2023-01-17T13:20:32.241Z,98498.53
2023-01-17T13:23:10.894Z,98493.94
2023-01-17T13:25:49.754Z,98488.53
2023-01-17T13:28:29.823Z,98489.63
2023-01-17T13:31:24.942Z,98497.28
2023-01-17T13:37:40.544Z,98491.88
2023-01-17T13:40:32.044Z,98494.03
2023-01-17T13:43:04.189Z,98495.69
2023-01-17T13:45:38.270Z,98499.31
2023-01-17T13:48:27.676Z,98496.03
2023-01-17T13:51:04.217Z,98500.41
2023-01-17T13:53:59.530Z,98504.00
2023-01-17T13:56:36.982Z,98507.94
2023-01-17T13:59:09.072Z,98504.78
2023-01-17T14:01:57.193Z,98503.09
2023-01-17T14:04:28.397Z,98504.09
2023-01-17T14:07:04.017Z,98506.47
2023-01-17T14:09:44.484Z,98506.47
2023-01-17T14:12:30.172Z,98510.97
2023-01-17T14:15:03.806Z,98508.03
2023-01-17T14:17:56.035Z,98501.75
2023-01-17T14:21:07.492Z,98502.41
2023-01-17T14:23:55.354Z,98510.97
2023-01-17T14:26:33.438Z,98507.78
2023-01-17T14:29:38.453Z,98506.91
2023-01-17T14:32:12.502Z,98510.72
2023-01-17T14:34:42.919Z,98504.88
2023-01-17T14:37:20.497Z,98507.47
2023-01-17T14:39:54.005Z,98503.53
2023-01-17T14:42:26.669Z,98505.09
2023-01-17T14:45:03.364Z,98508.91
2023-01-17T14:47:37.145Z,98503.53
2023-01-17T14:50:25.236Z,98514.94
2023-01-17T14:53:22.963Z,98507.56
2023-01-17T14:56:00.902Z,98518.91
2023-01-17T14:58:32.947Z,98519.78
2023-01-17T15:01:05.484Z,98527.50
2023-01-17T15:03:48.290Z,98530.53
2023-01-17T15:06:21.887Z,98540.50
2023-01-17T15:08:54.264Z,98528.63
2023-01-17T15:11:30.553Z,98538.94
2023-01-17T15:14:02.120Z,98535.81
2023-01-17T15:16:34.163Z,98534.22
2023-01-17T15:19:04.829Z,98540.28
2023-01-17T15:21:42.510Z,98538.72
2023-01-17T15:24:18.919Z,98532.88
2023-01-17T15:26:52.002Z,98521.66
2023-01-17T15:29:27.917Z,98529.28
2023-01-17T15:32:00.535Z,98532.66
2023-01-17T15:34:32.553Z,98524.09
2023-01-17T15:37:05.362Z,98519.41
2023-01-17T15:39:37.519Z,98523.56
2023-01-17T15:42:23.101Z,98526.44
2023-01-17T15:44:56.826Z,98529.47
2023-01-17T15:47:31.130Z,98535.50
2023-01-17T15:50:00.953Z,98532.34
2023-01-17T15:52:31.386Z,98536.16
2023-01-17T15:55:13.896Z,98535.38
2023-01-17T15:57:49.549Z,98536.69
2023-01-17T16:00:24.871Z,98541.16
2023-01-17T16:02:59.062Z,98543.72
2023-01-17T16:05:44.622Z,98541.91
2023-01-17T16:08:30.806Z,98548.59
2023-01-17T16:11:03.106Z,98548.00
2023-01-17T16:13:37.916Z,98544.72
2023-01-17T16:16:22.894Z,98554.09
2023-01-17T16:19:00.480Z,98553.53
2023-01-17T16:21:32.195Z,98553.25
2023-01-17T16:24:03.315Z,98559.94
2023-01-17T16:26:33.171Z,98560.44
2023-01-17T16:29:07.663Z,98563.31
2023-01-17T16:31:37.547Z,98571.53
2023-01-17T16:34:14.759Z,98572.53
2023-01-17T16:36:44.845Z,98580.44
2023-01-17T16:39:17.156Z,98580.63
2023-01-17T16:41:47.248Z,98571.78
2023-01-17T16:44:19.690Z,98570.97
2023-01-17T16:46:49.534Z,98579.38
2023-01-17T16:49:19.558Z,98585.53
2023-01-17T16:51:50.157Z,98586.97
2023-01-17T16:54:19.893Z,98592.97
2023-01-17T16:56:49.722Z,98590.47
2023-01-17T16:59:22.217Z,98588.75
2023-01-17T17:01:53.095Z,98597.59
2023-01-17T17:04:23.420Z,98590.97
2023-01-17T17:06:53.500Z,98598.56
2023-01-17T17:09:23.420Z,98597.63
2023-01-17T17:11:53.230Z,98603.66
2023-01-17T17:14:25.699Z,98591.97
2023-01-17T17:16:55.581Z,98598.00
2023-01-17T17:19:26.017Z,98600.19
2023-01-17T17:22:00.673Z,98595.47
2023-01-17T17:24:31.437Z,98602.25
2023-01-17T17:27:01.305Z,98606.38
2023-01-17T17:29:34.080Z,98617.75
2023-01-17T17:32:03.866Z,98618.84
2023-01-17T17:34:37.056Z,98617.25
2023-01-17T17:37:06.913Z,98618.03
2023-01-17T17:39:36.876Z,98614.91
2023-01-17T17:42:07.359Z,98610.97
2023-01-17T17:44:39.801Z,98624.53
2023-01-17T17:47:11.891Z,98634.34
2023-01-17T17:49:41.916Z,98642.22
2023-01-17T17:52:14.436Z,98635.63
2023-01-17T17:54:44.457Z,98631.97
2023-01-17T17:57:14.828Z,98635.31
2023-01-17T17:59:47.266Z,98638.16
2023-01-17T18:02:17.132Z,98643.34
2023-01-17T18:04:47.398Z,98640.84
2023-01-17T18:07:17.559Z,98636.09
2023-01-17T18:09:47.523Z,98645.09
2023-01-17T18:12:18.004Z,98644.13
2023-01-17T18:14:50.489Z,98652.81
2023-01-17T18:17:23.204Z,98654.53
2023-01-17T18:19:52.974Z,98662.13
2023-01-17T18:22:24.441Z,98657.53
2023-01-17T18:24:56.761Z,98665.91
2023-01-17T18:27:27.633Z,98664.78
2023-01-17T18:30:00.408Z,98671.25
2023-01-17T18:32:30.397Z,98672.66
2023-01-17T18:35:00.105Z,98677.53
2023-01-17T18:37:34.059Z,98674.72
2023-01-17T18:40:04.474Z,98682.13
2023-01-17T18:42:34.248Z,98680.38
2023-01-17T18:45:07.248Z,98684.78
2023-01-17T18:47:40.679Z,98685.38
2023-01-17T18:50:13.443Z,98699.69
2023-01-17T18:52:43.182Z,98697.97
2023-01-17T18:55:12.962Z,98699.22
2023-01-17T18:57:43.264Z,98698.25
2023-01-17T19:00:20.666Z,98699.97
2023-01-17T19:02:52.967Z,98697.91
2023-01-17T19:05:24.860Z,98708.16
2023-01-17T19:07:56.332Z,98693.63
2023-01-17T19:10:28.839Z,98700.41
2023-01-17T19:12:58.723Z,98704.66
2023-01-17T19:15:33.273Z,98698.19
2023-01-17T19:18:03.052Z,98705.91
2023-01-17T19:20:37.022Z,98704.03
2023-01-17T19:23:09.312Z,98708.28
2023-01-17T19:25:44.196Z,98705.91
2023-01-17T19:28:14.955Z,98718.03
2023-01-17T19:30:48.368Z,98718.63
2023-01-17T19:33:18.319Z,98716.13
2023-01-17T19:35:57.494Z,98720.50
2023-01-17T19:38:29.392Z,98721.13
2023-01-17T19:41:09.138Z,98716.88
2023-01-17T19:43:39.724Z,98717.00
2023-01-17T19:46:14.835Z,98718.41
2023-01-17T19:48:45.580Z,98724.06
2023-01-17T19:51:20.172Z,98724.69
2023-01-17T19:53:50.351Z,98729.56
2023-01-17T19:56:21.915Z,98725.59
2023-01-17T19:59:01.367Z,98729.19
2023-01-17T20:01:35.779Z,98735.63
2023-01-17T20:04:06.653Z,98740.50
2023-01-17T20:06:39.216Z,98742.06
2023-01-17T20:09:09.477Z,98739.38
2023-01-17T20:11:43.244Z,98740.97
2023-01-17T20:14:17.502Z,98740.97
2023-01-17T20:16:49.994Z,98747.41
2023-01-17T20:19:19.862Z,98742.69
2023-01-17T20:21:52.308Z,98747.84
2023-01-17T20:24:22.319Z,98749.25
2023-01-17T20:26:54.200Z,98753.63
2023-01-17T20:29:24.215Z,98753.44
2023-01-17T20:31:56.839Z,98750.59
2023-01-17T20:34:28.432Z,98752.31
2023-01-17T20:36:59.467Z,98758.75
2023-01-17T20:39:31.126Z,98759.66
2023-01-17T20:42:01.388Z,98769.06
2023-01-17T20:44:32.571Z,98772.34
2023-01-17T20:47:05.045Z,98768.41
2023-01-17T20:49:36.883Z,98784.75
2023-01-17T20:52:06.963Z,98778.88
2023-01-17T20:54:39.366Z,98779.50
2023-01-17T20:57:09.258Z,98783.28
2023-01-17T20:59:38.989Z,98779.50
2023-01-17T21:02:12.807Z,98790.19
2023-01-17T21:04:42.690Z,98784.84
2023-01-17T21:07:15.060Z,98778.72
2023-01-17T21:09:46.177Z,98781.69
2023-01-17T21:12:18.175Z,98787.34
2023-01-17T21:14:47.887Z,98784.47
2023-01-17T21:17:20.270Z,98788.81
2023-01-17T21:19:50.098Z,98791.00
2023-01-17T21:22:19.788Z,98792.72
2023-01-17T21:24:49.510Z,98790.16
2023-01-17T21:27:19.294Z,98800.34
2023-01-17T21:29:51.288Z,98797.19
2023-01-17T21:32:28.508Z,98804.72
2023-01-17T21:34:58.185Z,98808.47
2023-01-17T21:37:27.916Z,98800.75
2023-01-17T21:39:57.650Z,98810.28
2023-01-17T21:42:27.382Z,98813.03
2023-01-17T21:44:59.382Z,98812.03
2023-01-17T21:47:32.252Z,98812.03
2023-01-17T21:50:01.969Z,98812.03
2023-01-17T21:52:31.736Z,98820.06
2023-01-17T21:55:13.850Z,98817.59
2023-01-17T21:57:58.880Z,98814.63
2023-01-17T22:00:28.894Z,98821.53
2023-01-17T22:03:01.363Z,98818.88
2023-01-17T22:05:31.144Z,98815.41
2023-01-17T22:08:15.994Z,98818.88
2023-01-17T22:10:48.347Z,98827.50
2023-01-17T22:13:19.800Z,98824.31
2023-01-17T22:16:01.305Z,98828.69
2023-01-17T22:18:43.436Z,98823.91
2023-01-17T22:21:15.622Z,98828.75
2023-01-17T22:23:52.482Z,98825.13
2023-01-17T22:26:23.261Z,98831.03
2023-01-17T22:28:53.286Z,98824.44
2023-01-17T22:31:25.193Z,98828.97
2023-01-17T22:34:01.312Z,98837.56
2023-01-17T22:36:33.467Z,98838.66
2023-01-17T22:39:12.483Z,98840.03
2023-01-17T22:41:44.164Z,98835.00
2023-01-17T22:44:14.816Z,98839.84
2023-01-17T22:46:45.956Z,98838.25
2023-01-17T22:49:23.467Z,98837.16
2023-01-17T22:51:55.139Z,98835.00
2023-01-17T22:54:25.095Z,98830.47
2023-01-17T22:56:54.837Z,98832.03
2023-01-17T22:59:24.672Z,98834.22
2023-01-17T23:01:54.392Z,98832.59
2023-01-17T23:04:28.392Z,98835.59
2023-01-17T23:06:58.244Z,98846.06
2023-01-17T23:09:28.013Z,98843.69
2023-01-17T23:11:58.345Z,98837.38
2023-01-17T23:14:30.879Z,98834.78
2023-01-17T23:17:15.698Z,98837.75
2023-01-17T23:19:51.058Z,98846.63
2023-01-17T23:22:23.402Z,98831.22
2023-01-17T23:24:55.341Z,98843.47
2023-01-17T23:27:44.685Z,98846.44
2023-01-17T23:30:18.768Z,98840.88
2023-01-17T23:32:50.717Z,98847.59
2023-01-17T23:35:24.811Z,98849.00
2023-01-17T23:38:07.128Z,98843.13
2023-01-17T23:40:40.446Z,98851.13
2023-01-17T23:43:26.189Z,98840.28
2023-01-17T23:45:57.829Z,98844.53
2023-01-17T23:48:30.157Z,98845.81
2023-01-17T23:51:04.338Z,98842.03
2023-01-17T23:53:34.100Z,98846.81
2023-01-17T23:56:08.887Z,98839.91
2023-01-17T23:58:39.754Z,98845.22
